createdAt,value
2023-04-06T00:00:10.185Z, 38.56
2023-04-06T00:01:10.129Z, 38.59
2023-04-06T00:02:10.274Z, 38.50
2023-04-06T00:03:10.216Z, 38.45
2023-04-06T00:04:10.237Z, 38.45
2023-04-06T00:05:10.225Z, 38.40
2023-04-06T00:06:10.246Z, 38.40
2023-04-06T00:07:10.242Z, 38.40
2023-04-06T00:08:10.235Z, 38.40
2023-04-06T00:09:10.270Z, 38.35
2023-04-06T00:10:10.232Z, 38.38
2023-04-06T00:11:10.229Z, 38.39
2023-04-06T00:12:10.262Z, 38.31
2023-04-06T00:13:10.266Z, 38.24
2023-04-06T00:14:10.266Z, 38.23
2023-04-06T00:15:10.288Z, 38.29
2023-04-06T00:16:10.311Z, 38.32
2023-04-06T00:17:10.519Z, 38.30
2023-04-06T00:18:10.476Z, 38.37
2023-04-06T00:19:10.485Z, 38.31
2023-04-06T00:20:10.366Z, 38.30
2023-04-06T00:21:10.387Z, 38.29
2023-04-06T00:22:10.420Z, 38.28
2023-04-06T00:23:10.398Z, 38.26
2023-04-06T00:24:10.436Z, 38.25
2023-04-06T00:25:10.436Z, 38.25
2023-04-06T00:26:10.488Z, 38.22
2023-04-06T00:27:10.478Z, 38.19
2023-04-06T00:28:10.514Z, 38.12
2023-04-06T00:29:10.749Z, 38.08
2023-04-06T00:30:10.559Z, 38.12
2023-04-06T00:31:10.538Z, 38.12
2023-04-06T00:32:10.582Z, 38.15
2023-04-06T00:33:10.634Z, 38.17
2023-04-06T00:34:10.539Z, 38.15
2023-04-06T00:35:10.616Z, 38.10
2023-04-06T00:36:10.630Z, 38.13
2023-04-06T00:37:10.635Z, 38.11
2023-04-06T00:38:10.607Z, 38.07
2023-04-06T00:39:10.715Z, 38.05
2023-04-06T00:40:10.635Z, 38.05
2023-04-06T00:41:10.697Z, 38.05
2023-04-06T00:42:10.660Z, 38.08
2023-04-06T00:43:10.656Z, 38.03
2023-04-06T00:44:10.658Z, 38.03
2023-04-06T00:45:10.655Z, 38.03
2023-04-06T00:46:10.712Z, 38.00
2023-04-06T00:47:10.704Z, 37.98
2023-04-06T00:48:10.878Z, 37.99
2023-04-06T00:49:10.758Z, 37.95
2023-04-06T00:50:10.776Z, 37.98
2023-04-06T00:51:10.778Z, 37.97
2023-04-06T00:52:10.785Z, 37.93
2023-04-06T00:53:10.782Z, 37.92
2023-04-06T00:54:10.794Z, 37.88
2023-04-06T00:55:10.855Z, 37.83
2023-04-06T00:56:10.900Z, 37.83
2023-04-06T00:57:10.877Z, 37.84
2023-04-06T00:58:10.869Z, 37.83
2023-04-06T00:59:11.032Z, 37.84
2023-04-06T01:00:10.869Z, 37.85
2023-04-06T01:01:10.980Z, 37.81
2023-04-06T01:02:10.898Z, 37.84
2023-04-06T01:03:10.959Z, 37.80
2023-04-06T01:04:10.937Z, 37.79
2023-04-06T01:05:10.982Z, 37.76
2023-04-06T01:06:10.938Z, 37.74
2023-04-06T01:07:10.932Z, 37.72
2023-04-06T01:08:10.951Z, 37.74
2023-04-06T01:09:11.062Z, 37.75
2023-04-06T01:10:10.980Z, 37.73
2023-04-06T01:11:10.982Z, 37.71
2023-04-06T01:12:11.082Z, 37.73
2023-04-06T01:13:11.041Z, 37.72
2023-04-06T01:14:11.092Z, 37.70
2023-04-06T01:15:11.078Z, 37.69
2023-04-06T01:16:11.155Z, 37.63
2023-04-06T01:17:11.103Z, 37.61
2023-04-06T01:18:11.087Z, 37.58
2023-04-06T01:19:11.179Z, 37.57
2023-04-06T01:20:11.097Z, 37.60
2023-04-06T01:21:11.176Z, 37.58
2023-04-06T01:22:11.152Z, 37.57
2023-04-06T01:23:11.193Z, 37.56
2023-04-06T01:24:11.196Z, 37.50
2023-04-06T01:25:11.230Z, 37.46
2023-04-06T01:26:11.207Z, 37.52
2023-04-06T01:27:11.249Z, 37.53
2023-04-06T01:28:11.229Z, 37.54
2023-04-06T01:29:11.232Z, 37.51
2023-04-06T01:30:11.248Z, 37.52
2023-04-06T01:31:11.279Z, 37.50
2023-04-06T01:32:11.313Z, 37.47
2023-04-06T01:33:11.279Z, 37.40
2023-04-06T01:34:11.332Z, 37.36
2023-04-06T01:35:11.294Z, 37.42
2023-04-06T01:36:11.370Z, 37.41
2023-04-06T01:37:11.345Z, 37.40
2023-04-06T01:38:11.382Z, 37.44
2023-04-06T01:39:11.374Z, 37.39
2023-04-06T01:40:11.372Z, 37.43
2023-04-06T01:41:11.379Z, 37.36
2023-04-06T01:42:11.393Z, 37.35
2023-04-06T01:43:11.485Z, 37.31
2023-04-06T01:44:11.453Z, 37.29
2023-04-06T01:45:11.458Z, 37.28
2023-04-06T01:46:11.477Z, 37.31
2023-04-06T01:47:11.465Z, 37.26
2023-04-06T01:48:11.467Z, 37.27
2023-04-06T01:49:11.489Z, 37.27
2023-04-06T01:50:11.489Z, 37.32
2023-04-06T01:51:11.503Z, 37.32
2023-04-06T01:52:11.530Z, 37.28
2023-04-06T01:53:11.532Z, 37.27
2023-04-06T01:54:11.606Z, 37.24
2023-04-06T01:55:11.594Z, 37.18
2023-04-06T01:56:11.588Z, 37.22
2023-04-06T01:57:11.628Z, 37.20
2023-04-06T01:58:11.594Z, 37.20
2023-04-06T01:59:11.849Z, 37.17
2023-04-06T02:00:11.711Z, 37.18
2023-04-06T02:01:11.776Z, 37.15
2023-04-06T02:02:11.738Z, 37.18
2023-04-06T02:03:11.733Z, 37.17
2023-04-06T02:04:11.709Z, 37.10
2023-04-06T02:05:11.705Z, 37.10
2023-04-06T02:06:11.707Z, 37.11
2023-04-06T02:07:11.711Z, 37.13
2023-04-06T02:08:11.725Z, 37.08
2023-04-06T02:09:11.780Z, 37.07
2023-04-06T02:10:11.768Z, 37.06
2023-04-06T02:11:11.781Z, 37.04
2023-04-06T02:12:11.790Z, 37.08
2023-04-06T02:13:11.799Z, 37.05
2023-04-06T02:14:11.842Z, 37.08
2023-04-06T02:15:11.832Z, 37.10
2023-04-06T02:16:11.922Z, 37.08
2023-04-06T02:17:11.917Z, 37.06
2023-04-06T02:18:11.892Z, 37.00
2023-04-06T02:19:11.919Z, 36.98
2023-04-06T02:20:11.897Z, 36.96
2023-04-06T02:21:11.920Z, 36.92
2023-04-06T02:22:11.911Z, 36.97
2023-04-06T02:23:11.952Z, 37.00
2023-04-06T02:24:11.975Z, 36.96
2023-04-06T02:25:11.949Z, 36.93
2023-04-06T02:26:12.033Z, 36.95
2023-04-06T02:27:11.989Z, 36.94
2023-04-06T02:28:12.022Z, 36.92
2023-04-06T02:29:12.025Z, 36.87
2023-04-06T02:30:12.006Z, 36.87
2023-04-06T02:31:12.010Z, 36.88
2023-04-06T02:32:12.162Z, 36.88
2023-04-06T02:33:12.070Z, 36.88
2023-04-06T02:34:12.109Z, 36.89
2023-04-06T02:35:12.088Z, 36.86
2023-04-06T02:36:12.118Z, 36.82
2023-04-06T02:37:12.097Z, 36.85
2023-04-06T02:38:12.096Z, 36.85
2023-04-06T02:39:12.127Z, 36.86
2023-04-06T02:40:12.120Z, 36.83
2023-04-06T02:41:12.180Z, 36.84
2023-04-06T02:42:12.160Z, 36.80
2023-04-06T02:43:12.230Z, 36.77
2023-04-06T02:44:12.193Z, 36.73
2023-04-06T02:45:12.252Z, 36.77
2023-04-06T02:46:12.273Z, 36.74
2023-04-06T02:47:12.235Z, 36.72
2023-04-06T02:48:12.212Z, 36.70
2023-04-06T02:49:12.214Z, 36.67
2023-04-06T02:50:12.216Z, 36.66
2023-04-06T02:51:12.240Z, 36.69
2023-04-06T02:52:12.240Z, 36.76
2023-04-06T02:53:12.266Z, 36.73
2023-04-06T02:54:12.365Z, 36.72
2023-04-06T02:55:12.340Z, 36.68
2023-04-06T02:56:12.366Z, 36.61
2023-04-06T02:57:12.328Z, 36.60
2023-04-06T02:58:12.333Z, 36.57
2023-04-06T02:59:12.476Z, 36.61
2023-04-06T03:00:12.382Z, 36.56
2023-04-06T03:01:12.495Z, 36.51
2023-04-06T03:02:12.435Z, 36.57
2023-04-06T03:03:12.590Z, 36.54
2023-04-06T03:04:12.454Z, 36.51
2023-04-06T03:05:12.453Z, 36.53
2023-04-06T03:06:12.512Z, 36.51
2023-04-06T03:07:12.492Z, 36.55
2023-04-06T03:08:12.534Z, 36.52
2023-04-06T03:09:12.545Z, 36.51
2023-04-06T03:10:12.566Z, 36.48
2023-04-06T03:11:12.546Z, 36.41
2023-04-06T03:12:12.590Z, 36.43
2023-04-06T03:13:12.562Z, 36.42
2023-04-06T03:14:12.583Z, 36.42
2023-04-06T03:15:12.578Z, 36.40
2023-04-06T03:16:12.633Z, 36.39
2023-04-06T03:17:12.590Z, 36.39
2023-04-06T03:18:12.630Z, 36.44
2023-04-06T03:19:12.587Z, 36.40
2023-04-06T03:20:12.628Z, 36.37
2023-04-06T03:21:12.609Z, 36.37
2023-04-06T03:22:12.627Z, 36.33
2023-04-06T03:23:12.647Z, 36.33
2023-04-06T03:24:12.667Z, 36.33
2023-04-06T03:25:12.667Z, 36.29
2023-04-06T03:26:12.673Z, 36.30
2023-04-06T03:27:12.687Z, 36.30
2023-04-06T03:28:12.707Z, 36.30
2023-04-06T03:29:12.783Z, 36.31
2023-04-06T03:30:12.761Z, 36.29
2023-04-06T03:31:12.837Z, 36.54
2023-04-06T03:32:12.765Z, 38.43
2023-04-06T03:33:12.828Z, 41.27
2023-04-06T03:34:12.804Z, 43.02
2023-04-06T03:35:12.853Z, 44.17
2023-04-06T03:36:12.812Z, 44.95
2023-04-06T03:37:12.830Z, 45.71
2023-04-06T03:38:12.818Z, 46.29
2023-04-06T03:39:12.867Z, 46.76
2023-04-06T03:40:13.062Z, 47.27
2023-04-06T03:41:12.906Z, 47.62
2023-04-06T03:42:12.878Z, 48.09
2023-04-06T03:43:12.899Z, 48.48
2023-04-06T03:44:12.893Z, 48.87
2023-04-06T03:45:12.939Z, 49.24
2023-04-06T03:46:12.978Z, 49.53
2023-04-06T03:47:12.930Z, 49.98
2023-04-06T03:48:13.022Z, 50.39
2023-04-06T03:49:12.985Z, 50.75
2023-04-06T03:50:13.047Z, 51.08
2023-04-06T03:51:13.023Z, 51.37
2023-04-06T03:52:13.031Z, 51.61
2023-04-06T03:53:13.033Z, 51.79
2023-04-06T03:54:13.032Z, 51.95
2023-04-06T03:55:13.100Z, 52.05
2023-04-06T03:56:13.130Z, 52.21
2023-04-06T03:57:13.101Z, 52.37
2023-04-06T03:58:13.133Z, 52.50
2023-04-06T03:59:13.182Z, 52.55
2023-04-06T04:00:13.101Z, 52.61
2023-04-06T04:01:13.114Z, 52.67
2023-04-06T04:02:13.139Z, 52.68
2023-04-06T04:03:13.267Z, 52.73
2023-04-06T04:04:13.124Z, 52.71
2023-04-06T04:05:13.189Z, 52.71
2023-04-06T04:06:13.163Z, 52.81
2023-04-06T04:07:13.244Z, 52.77
2023-04-06T04:08:13.195Z, 52.68
2023-04-06T04:09:13.284Z, 52.67
2023-04-06T04:10:13.254Z, 52.66
2023-04-06T04:11:13.287Z, 52.73
2023-04-06T04:12:13.261Z, 52.67
2023-04-06T04:13:13.278Z, 52.67
2023-04-06T04:14:13.368Z, 52.59
2023-04-06T04:15:13.351Z, 52.60
2023-04-06T04:16:13.382Z, 52.57
2023-04-06T04:17:13.349Z, 52.53
2023-04-06T04:18:13.410Z, 52.51
2023-04-06T04:19:13.381Z, 52.49
2023-04-06T04:20:13.380Z, 52.46
2023-04-06T04:21:13.382Z, 52.43
2023-04-06T04:22:13.384Z, 52.43
2023-04-06T04:23:13.463Z, 52.37
2023-04-06T04:24:13.450Z, 52.36
2023-04-06T04:25:13.458Z, 52.34
2023-04-06T04:26:13.437Z, 52.30
2023-04-06T04:27:13.475Z, 52.27
2023-04-06T04:28:13.523Z, 52.23
2023-04-06T04:29:13.495Z, 52.22
2023-04-06T04:30:13.494Z, 52.19
2023-04-06T04:31:13.502Z, 52.19
2023-04-06T04:32:13.626Z, 52.16
2023-04-06T04:33:13.542Z, 52.16
2023-04-06T04:34:13.587Z, 52.16
2023-04-06T04:35:13.556Z, 52.16
2023-04-06T04:36:13.594Z, 52.13
2023-04-06T04:37:13.653Z, 52.14
2023-04-06T04:38:13.651Z, 52.07
2023-04-06T04:39:13.664Z, 52.01
2023-04-06T04:40:13.681Z, 51.89
2023-04-06T04:41:13.656Z, 51.73
2023-04-06T04:42:13.717Z, 51.49
2023-04-06T04:43:13.684Z, 51.16
2023-04-06T04:44:13.741Z, 50.98
2023-04-06T04:45:13.721Z, 50.88
2023-04-06T04:46:13.853Z, 50.72
2023-04-06T04:47:13.738Z, 50.53
2023-04-06T04:48:13.831Z, 50.37
2023-04-06T04:49:13.758Z, 50.31
2023-04-06T04:50:13.757Z, 50.26
2023-04-06T04:51:13.812Z, 50.52
2023-04-06T04:52:13.786Z, 51.11
2023-04-06T04:53:13.784Z, 51.42
2023-04-06T04:54:13.802Z, 51.59
2023-04-06T04:55:13.793Z, 51.66
2023-04-06T04:56:13.802Z, 51.69
2023-04-06T04:57:13.893Z, 51.51
2023-04-06T04:58:13.845Z, 51.25
2023-04-06T04:59:13.893Z, 51.11
2023-04-06T05:00:13.854Z, 51.05
2023-04-06T05:01:13.910Z, 50.98
2023-04-06T05:02:14.126Z, 50.91
2023-04-06T05:03:14.009Z, 50.89
2023-04-06T05:04:13.987Z, 50.87
2023-04-06T05:05:13.974Z, 50.85
2023-04-06T05:06:14.008Z, 50.87
2023-04-06T05:07:13.986Z, 50.81
2023-04-06T05:08:14.041Z, 50.89
2023-04-06T05:09:14.031Z, 50.97
2023-04-06T05:10:14.020Z, 50.96
2023-04-06T05:11:14.034Z, 51.00
2023-04-06T05:12:14.021Z, 51.02
2023-04-06T05:13:14.050Z, 51.04
2023-04-06T05:14:14.050Z, 51.03
2023-04-06T05:15:14.134Z, 51.11
2023-04-06T05:16:14.144Z, 51.00
2023-04-06T05:17:14.145Z, 50.36
2023-04-06T05:18:14.112Z, 49.90
2023-04-06T05:19:14.167Z, 49.89
2023-04-06T05:20:14.147Z, 49.84
2023-04-06T05:21:14.168Z, 49.80
2023-04-06T05:22:14.135Z, 49.65
2023-04-06T05:23:14.168Z, 49.57
2023-04-06T05:24:14.165Z, 49.48
2023-04-06T05:25:14.181Z, 49.43
2023-04-06T05:26:14.212Z, 49.39
2023-04-06T05:27:14.204Z, 49.32
2023-04-06T05:28:14.209Z, 49.28
2023-04-06T05:29:14.231Z, 49.11
2023-04-06T05:30:14.311Z, 49.05
2023-04-06T05:31:14.310Z, 49.01
2023-04-06T05:32:14.289Z, 48.94
2023-04-06T05:33:14.341Z, 48.87
2023-04-06T05:34:14.298Z, 48.76
2023-04-06T05:35:14.316Z, 48.63
2023-04-06T05:36:15.185Z, 48.62
2023-04-06T05:37:14.392Z, 48.63
2023-04-06T05:38:14.376Z, 48.62
2023-04-06T05:39:14.420Z, 48.52
2023-04-06T05:40:14.404Z, 48.48
2023-04-06T05:41:14.401Z, 48.44
2023-04-06T05:42:14.421Z, 48.48
2023-04-06T05:43:14.424Z, 48.43
2023-04-06T05:44:14.414Z, 48.41
2023-04-06T05:45:14.420Z, 48.39
2023-04-06T05:46:14.572Z, 48.69
2023-04-06T05:47:14.478Z, 50.92
2023-04-06T05:48:14.587Z, 55.00
2023-04-06T05:49:14.493Z, 59.22
2023-04-06T05:50:14.512Z, 70.22
2023-04-06T05:51:14.498Z, 63.48
2023-04-06T05:52:14.576Z, 57.75
2023-04-06T05:53:14.552Z, 56.79
2023-04-06T05:54:14.613Z, 57.04
2023-04-06T05:55:14.594Z, 57.42
2023-04-06T05:56:14.620Z, 57.90
2023-04-06T05:57:14.597Z, 58.47
2023-04-06T05:58:14.652Z, 58.70
2023-04-06T05:59:14.684Z, 59.10
2023-04-06T06:00:14.628Z, 59.59
2023-04-06T06:01:14.700Z, 60.38
2023-04-06T06:02:14.718Z, 61.04
2023-04-06T06:03:14.822Z, 61.69
2023-04-06T06:04:14.701Z, 62.36
2023-04-06T06:05:14.726Z, 62.83
2023-04-06T06:06:14.723Z, 60.34
2023-04-06T06:07:14.723Z, 58.84
2023-04-06T06:08:14.721Z, 58.12
2023-04-06T06:09:14.740Z, 57.62
2023-04-06T06:10:14.785Z, 57.58
2023-04-06T06:11:14.785Z, 57.63
2023-04-06T06:12:14.888Z, 57.60
2023-04-06T06:13:14.813Z, 57.56
2023-04-06T06:14:14.804Z, 57.51
2023-04-06T06:15:14.823Z, 57.51
2023-04-06T06:16:14.868Z, 57.45
2023-04-06T06:17:14.837Z, 57.41
2023-04-06T06:18:14.980Z, 57.29
2023-04-06T06:19:14.909Z, 57.17
2023-04-06T06:20:14.902Z, 57.07
2023-04-06T06:21:14.906Z, 56.93
2023-04-06T06:22:14.912Z, 56.87
2023-04-06T06:23:14.926Z, 56.68
2023-04-06T06:24:14.989Z, 56.61
2023-04-06T06:25:14.963Z, 56.52
2023-04-06T06:26:15.028Z, 56.41
2023-04-06T06:27:15.001Z, 56.30
2023-04-06T06:28:15.009Z, 56.23
2023-04-06T06:29:15.041Z, 56.09
2023-04-06T06:30:15.011Z, 55.99
2023-04-06T06:31:15.138Z, 55.91
2023-04-06T06:32:15.050Z, 55.76
2023-04-06T06:33:15.098Z, 55.66
2023-04-06T06:34:15.081Z, 55.55
2023-04-06T06:35:15.113Z, 55.39
2023-04-06T06:36:15.276Z, 55.32
2023-04-06T06:37:15.135Z, 55.22
2023-04-06T06:38:15.126Z, 55.15
2023-04-06T06:39:15.164Z, 55.13
2023-04-06T06:40:15.159Z, 55.01
2023-04-06T06:41:15.143Z, 54.91
2023-04-06T06:42:15.232Z, 54.89
2023-04-06T06:43:15.198Z, 54.81
2023-04-06T06:44:15.220Z, 54.77
2023-04-06T06:45:15.226Z, 54.71
2023-04-06T06:46:15.285Z, 54.62
2023-04-06T06:47:15.273Z, 54.53
2023-04-06T06:48:15.281Z, 54.51
2023-04-06T06:49:15.314Z, 54.43
2023-04-06T06:50:15.290Z, 54.42
2023-04-06T06:51:15.324Z, 54.39
2023-04-06T06:52:15.332Z, 54.34
2023-04-06T06:53:15.306Z, 54.34
2023-04-06T06:54:15.386Z, 54.32
2023-04-06T06:55:15.361Z, 54.19
2023-04-06T06:56:15.352Z, 54.29
2023-04-06T06:57:15.349Z, 54.21
2023-04-06T06:58:15.389Z, 54.16
2023-04-06T06:59:15.432Z, 54.04
2023-04-06T07:00:15.443Z, 54.00
2023-04-06T07:01:15.481Z, 54.03
2023-04-06T07:02:15.498Z, 53.94
2023-04-06T07:03:15.449Z, 53.90
2023-04-06T07:04:15.529Z, 53.93
2023-04-06T07:05:26.917Z, 53.92
2023-04-06T07:06:15.513Z, 53.83
2023-04-06T07:07:15.480Z, 53.87
2023-04-06T07:08:15.493Z, 53.84
2023-04-06T07:09:15.494Z, 53.82
2023-04-06T07:10:15.489Z, 53.69
2023-04-06T07:11:15.519Z, 53.76
2023-04-06T07:12:15.532Z, 53.70
2023-04-06T07:13:15.631Z, 53.70
2023-04-06T07:14:15.588Z, 53.61
2023-04-06T07:15:15.599Z, 53.63
2023-04-06T07:16:15.626Z, 53.58
2023-04-06T07:17:15.648Z, 53.55
2023-04-06T07:18:15.617Z, 53.53
2023-04-06T07:19:15.651Z, 53.47
2023-04-06T07:20:15.648Z, 53.44
2023-04-06T07:21:15.711Z, 53.35
2023-04-06T07:22:15.701Z, 53.37
2023-04-06T07:23:15.749Z, 53.29
2023-04-06T07:24:15.700Z, 53.35
2023-04-06T07:25:15.698Z, 53.35
2023-04-06T07:26:15.773Z, 53.29
2023-04-06T07:27:15.755Z, 53.22
2023-04-06T07:28:15.791Z, 53.21
2023-04-06T07:29:15.738Z, 53.18
2023-04-06T07:30:15.744Z, 53.23
2023-04-06T07:31:15.742Z, 53.17
2023-04-06T07:32:15.904Z, 53.21
2023-04-06T07:33:15.851Z, 53.14
2023-04-06T07:34:15.807Z, 53.07
2023-04-06T07:35:15.882Z, 53.05
2023-04-06T07:36:15.869Z, 53.04
2023-04-06T07:37:15.926Z, 53.03
2023-04-06T07:38:15.866Z, 52.96
2023-04-06T07:39:15.930Z, 52.94
2023-04-06T07:40:15.911Z, 52.87
2023-04-06T07:41:15.959Z, 52.90
2023-04-06T07:42:15.938Z, 52.91
2023-04-06T07:43:15.979Z, 52.88
2023-04-06T07:44:15.987Z, 52.89
2023-04-06T07:45:15.970Z, 52.85
2023-04-06T07:46:16.009Z, 52.84
2023-04-06T07:47:15.971Z, 52.84
2023-04-06T07:48:16.024Z, 52.80
2023-04-06T07:49:16.009Z, 52.84
2023-04-06T07:50:16.056Z, 52.80
2023-04-06T07:51:16.043Z, 52.72
2023-04-06T07:52:16.041Z, 52.69
2023-04-06T07:53:16.060Z, 52.69
2023-04-06T07:54:16.051Z, 52.68
2023-04-06T07:55:16.111Z, 52.62
2023-04-06T07:56:16.060Z, 52.63
2023-04-06T07:57:16.188Z, 52.62
2023-04-06T07:58:16.096Z, 52.68
2023-04-06T07:59:16.165Z, 52.71
2023-04-06T08:00:16.122Z, 52.65
2023-04-06T08:01:16.194Z, 52.61
2023-04-06T08:02:16.191Z, 52.66
2023-04-06T08:03:16.302Z, 52.57
2023-04-06T08:04:16.277Z, 52.60
2023-04-06T08:05:16.230Z, 52.45
2023-04-06T08:06:16.209Z, 52.51
2023-04-06T08:07:16.219Z, 52.50
2023-04-06T08:08:16.292Z, 52.41
2023-04-06T08:09:16.274Z, 52.41
2023-04-06T08:10:16.268Z, 52.34
2023-04-06T08:11:16.278Z, 52.34
2023-04-06T08:12:16.282Z, 52.30
2023-04-06T08:13:16.298Z, 52.28
2023-04-06T08:14:16.305Z, 52.28
2023-04-06T08:15:16.330Z, 52.24
2023-04-06T08:16:16.383Z, 52.23
2023-04-06T08:17:16.345Z, 52.24
2023-04-06T08:18:16.366Z, 52.21
2023-04-06T08:19:16.427Z, 52.15
2023-04-06T08:20:16.411Z, 52.10
2023-04-06T08:21:16.444Z, 52.04
2023-04-06T08:22:16.432Z, 52.11
2023-04-06T08:23:16.483Z, 52.11
2023-04-06T08:24:16.466Z, 52.07
2023-04-06T08:25:16.514Z, 52.02
2023-04-06T08:26:16.476Z, 52.07
2023-04-06T08:27:16.511Z, 52.13
2023-04-06T08:28:16.490Z, 52.11
2023-04-06T08:29:16.508Z, 52.06
2023-04-06T08:30:16.504Z, 52.12
2023-04-06T08:31:16.578Z, 52.07
2023-04-06T08:32:16.556Z, 52.05
2023-04-06T08:33:16.533Z, 52.00
2023-04-06T08:34:16.805Z, 51.99
2023-04-06T08:35:16.594Z, 52.05
2023-04-06T08:36:16.676Z, 51.94
2023-04-06T08:37:16.631Z, 52.06
2023-04-06T08:38:16.662Z, 51.89
2023-04-06T08:39:16.673Z, 51.81
2023-04-06T08:40:16.648Z, 51.87
2023-04-06T08:41:16.654Z, 51.78
2023-04-06T08:42:16.655Z, 51.79
2023-04-06T08:43:16.658Z, 51.79
2023-04-06T08:44:16.657Z, 51.72
2023-04-06T08:45:16.692Z, 51.74
2023-04-06T08:46:16.720Z, 51.73
2023-04-06T08:47:16.768Z, 51.66
2023-04-06T08:48:16.733Z, 51.65
2023-04-06T08:49:16.826Z, 51.72
2023-04-06T08:50:16.755Z, 51.78
2023-04-06T08:51:16.834Z, 51.65
2023-04-06T08:52:16.807Z, 51.57
2023-04-06T08:53:16.944Z, 51.49
2023-04-06T08:54:16.853Z, 51.50
2023-04-06T08:55:16.811Z, 51.46
2023-04-06T08:56:16.884Z, 51.40
2023-04-06T08:57:16.847Z, 51.50
2023-04-06T08:58:24.557Z, 51.50
2023-04-06T08:59:16.996Z, 51.42
2023-04-06T09:00:16.901Z, 51.39
2023-04-06T09:01:16.989Z, 51.32
2023-04-06T09:02:16.961Z, 51.32
2023-04-06T09:03:17.149Z, 51.38
2023-04-06T09:04:17.296Z, 51.29
2023-04-06T09:05:16.987Z, 51.33
2023-04-06T09:06:16.962Z, 51.34
2023-04-06T09:07:16.959Z, 51.29
2023-04-06T09:08:16.983Z, 51.35
2023-04-06T09:09:16.993Z, 51.37
2023-04-06T09:10:17.042Z, 51.25
2023-04-06T09:11:17.015Z, 51.22
2023-04-06T09:12:17.046Z, 51.27
2023-04-06T09:13:17.024Z, 51.23
2023-04-06T09:14:17.042Z, 51.25
2023-04-06T09:15:17.054Z, 51.16
2023-04-06T09:16:17.195Z, 51.12
2023-04-06T09:17:17.116Z, 51.12
2023-04-06T09:18:17.114Z, 51.08
2023-04-06T09:19:17.153Z, 51.06
2023-04-06T09:20:17.124Z, 51.04
2023-04-06T09:21:17.155Z, 51.08
2023-04-06T09:22:17.159Z, 51.09
2023-04-06T09:23:17.185Z, 51.00
2023-04-06T09:24:17.190Z, 51.10
2023-04-06T09:25:17.264Z, 51.08
2023-04-06T09:26:17.248Z, 50.98
2023-04-06T09:27:17.251Z, 50.90
2023-04-06T09:28:17.240Z, 50.85
2023-04-06T09:29:17.254Z, 50.90
2023-04-06T09:30:17.247Z, 50.94
2023-04-06T09:31:17.303Z, 50.98
2023-04-06T09:32:17.354Z, 50.93
2023-04-06T09:33:17.334Z, 50.81
2023-04-06T09:34:17.400Z, 50.81
2023-04-06T09:35:17.413Z, 50.83
2023-04-06T09:36:17.382Z, 50.82
2023-04-06T09:37:17.354Z, 50.77
2023-04-06T09:38:17.349Z, 50.72
2023-04-06T09:39:17.429Z, 50.76
2023-04-06T09:40:17.386Z, 50.65
2023-04-06T09:41:17.442Z, 50.66
2023-04-06T09:42:17.415Z, 50.63
2023-04-06T09:43:17.453Z, 50.53
2023-04-06T09:44:17.444Z, 50.51
2023-04-06T09:45:17.495Z, 50.58
2023-04-06T09:46:17.528Z, 50.57
2023-04-06T09:47:17.541Z, 50.61
2023-04-06T09:48:17.577Z, 50.59
2023-04-06T09:49:17.509Z, 50.60
2023-04-06T09:50:17.581Z, 50.60
2023-04-06T09:51:17.519Z, 50.55
2023-04-06T09:52:17.586Z, 50.49
2023-04-06T09:53:17.563Z, 50.48
2023-04-06T09:54:17.624Z, 50.49
2023-04-06T09:55:17.608Z, 50.53
2023-04-06T09:56:17.648Z, 50.46
2023-04-06T09:57:17.618Z, 50.37
2023-04-06T09:58:17.652Z, 50.40
2023-04-06T09:59:17.663Z, 50.35
2023-04-06T10:00:17.661Z, 50.26
2023-04-06T10:01:17.760Z, 50.92
2023-04-06T10:02:17.712Z, 52.92
2023-04-06T10:03:17.727Z, 53.44
2023-04-06T10:04:17.752Z, 53.59
2023-04-06T10:05:17.685Z, 53.65
2023-04-06T10:06:17.683Z, 53.52
2023-04-06T10:07:17.706Z, 53.34
2023-04-06T10:08:17.702Z, 53.32
2023-04-06T10:09:17.713Z, 53.35
2023-04-06T10:10:17.790Z, 53.32
2023-04-06T10:11:17.747Z, 53.26
2023-04-06T10:12:17.764Z, 53.21
2023-04-06T10:13:17.859Z, 53.08
2023-04-06T10:14:17.824Z, 52.99
2023-04-06T10:15:19.141Z, 52.87
2023-04-06T10:16:17.885Z, 52.72
2023-04-06T10:17:17.896Z, 52.63
2023-04-06T10:18:17.852Z, 52.47
2023-04-06T10:19:17.932Z, 52.32
2023-04-06T10:20:17.998Z, 52.21
2023-04-06T10:21:18.857Z, 52.07
2023-04-06T10:22:17.912Z, 51.93
2023-04-06T10:23:17.933Z, 51.79
2023-04-06T10:24:17.938Z, 51.67
2023-04-06T10:25:17.931Z, 51.63
2023-04-06T10:26:17.934Z, 51.54
2023-04-06T10:27:17.937Z, 51.50
2023-04-06T10:28:17.950Z, 51.42
2023-04-06T10:29:17.986Z, 51.39
2023-04-06T10:30:18.035Z, 51.34
2023-04-06T10:31:18.014Z, 51.13
2023-04-06T10:32:18.193Z, 50.83
2023-04-06T10:33:18.059Z, 50.88
2023-04-06T10:34:18.081Z, 50.86
2023-04-06T10:35:18.089Z, 50.62
2023-04-06T10:36:18.214Z, 50.29
2023-04-06T10:37:18.140Z, 50.07
2023-04-06T10:38:18.131Z, 49.92
2023-04-06T10:39:18.129Z, 49.67
2023-04-06T10:40:18.127Z, 49.55
2023-04-06T10:41:18.154Z, 49.37
2023-04-06T10:42:18.125Z, 49.28
2023-04-06T10:43:18.164Z, 49.17
2023-04-06T10:44:18.142Z, 49.07
2023-04-06T10:45:18.184Z, 49.00
2023-04-06T10:46:18.247Z, 48.91
2023-04-06T10:47:18.240Z, 48.84
2023-04-06T10:48:18.237Z, 48.78
2023-04-06T10:49:18.280Z, 48.70
2023-04-06T10:50:18.245Z, 48.68
2023-04-06T10:51:18.318Z, 48.57
2023-04-06T10:52:18.285Z, 48.51
2023-04-06T10:53:18.351Z, 48.39
2023-04-06T10:54:18.301Z, 48.40
2023-04-06T10:55:18.280Z, 48.24
2023-04-06T10:56:18.342Z, 48.29
2023-04-06T10:57:18.355Z, 48.35
2023-04-06T10:58:18.314Z, 48.30
2023-04-06T10:59:18.475Z, 48.19
2023-04-06T11:00:18.326Z, 48.17
2023-04-06T11:01:18.477Z, 48.18
2023-04-06T11:02:18.367Z, 48.14
2023-04-06T11:03:18.439Z, 48.08
2023-04-06T11:04:18.443Z, 48.12
2023-04-06T11:05:18.425Z, 48.06
2023-04-06T11:06:18.408Z, 48.01
2023-04-06T11:07:18.414Z, 47.94
2023-04-06T11:08:18.436Z, 47.92
2023-04-06T11:09:18.462Z, 47.94
2023-04-06T11:10:20.732Z, 47.88
2023-04-06T11:11:18.446Z, 47.93
2023-04-06T11:12:18.465Z, 47.94
2023-04-06T11:13:18.494Z, 47.91
2023-04-06T11:14:18.508Z, 47.87
2023-04-06T11:15:18.534Z, 47.88
2023-04-06T11:16:18.625Z, 47.85
2023-04-06T11:17:18.559Z, 47.84
2023-04-06T11:18:18.563Z, 47.83
2023-04-06T11:19:18.554Z, 47.77
2023-04-06T11:20:18.622Z, 47.69
2023-04-06T11:21:18.590Z, 47.68
2023-04-06T11:22:18.628Z, 47.65
2023-04-06T11:23:18.613Z, 47.66
2023-04-06T11:24:18.652Z, 47.57
2023-04-06T11:25:18.618Z, 47.49
2023-04-06T11:26:18.654Z, 47.52
2023-04-06T11:27:18.657Z, 47.44
2023-04-06T11:28:18.680Z, 47.44
2023-04-06T11:29:18.745Z, 47.36
2023-04-06T11:30:18.705Z, 47.38
2023-04-06T11:31:18.751Z, 47.42
2023-04-06T11:32:18.748Z, 47.41
2023-04-06T11:33:18.723Z, 47.39
2023-04-06T11:34:18.828Z, 47.42
2023-04-06T11:35:18.762Z, 47.27
2023-04-06T11:36:18.862Z, 47.22
2023-04-06T11:37:18.808Z, 47.15
2023-04-06T11:38:18.900Z, 47.15
2023-04-06T11:39:18.854Z, 47.20
2023-04-06T11:40:18.886Z, 47.14
2023-04-06T11:41:18.878Z, 47.11
2023-04-06T11:42:18.882Z, 47.12
2023-04-06T11:43:18.869Z, 47.10
2023-04-06T11:44:18.879Z, 47.06
2023-04-06T11:45:18.919Z, 47.00
2023-04-06T11:46:18.934Z, 46.98
2023-04-06T11:47:18.980Z, 46.91
2023-04-06T11:48:18.971Z, 46.97
2023-04-06T11:49:18.979Z, 46.98
2023-04-06T11:50:18.940Z, 47.01
2023-04-06T11:51:18.937Z, 46.96
2023-04-06T11:52:19.008Z, 46.88
2023-04-06T11:53:18.981Z, 46.84
2023-04-06T11:54:19.049Z, 46.86
2023-04-06T11:55:19.091Z, 46.84
2023-04-06T11:56:19.029Z, 46.80
2023-04-06T11:57:19.045Z, 46.81
2023-04-06T11:58:19.021Z, 46.74
2023-04-06T11:59:19.171Z, 46.69
2023-04-06T12:00:19.082Z, 46.74
2023-04-06T12:01:19.120Z, 46.69
2023-04-06T12:02:19.160Z, 46.74
2023-04-06T12:03:19.211Z, 46.65
2023-04-06T12:04:19.175Z, 46.61
2023-04-06T12:05:19.152Z, 46.61
2023-04-06T12:06:19.120Z, 46.66
2023-04-06T12:07:19.129Z, 46.58
2023-04-06T12:08:19.144Z, 46.57
2023-04-06T12:09:19.179Z, 46.48
2023-04-06T12:10:19.172Z, 46.45
2023-04-06T12:11:19.175Z, 46.47
2023-04-06T12:12:19.213Z, 46.42
2023-04-06T12:13:19.199Z, 46.43
2023-04-06T12:14:19.237Z, 46.41
2023-04-06T12:15:19.221Z, 46.40
2023-04-06T12:16:19.330Z, 46.47
2023-04-06T12:17:19.267Z, 46.41
2023-04-06T12:18:19.259Z, 46.44
2023-04-06T12:19:19.296Z, 46.46
2023-04-06T12:20:25.784Z, 46.34
2023-04-06T12:21:19.355Z, 46.41
2023-04-06T12:22:19.344Z, 46.38
2023-04-06T12:23:19.333Z, 46.43
2023-04-06T12:24:19.337Z, 46.37
2023-04-06T12:25:19.341Z, 46.30
2023-04-06T12:26:19.356Z, 46.34
2023-04-06T12:27:19.378Z, 46.34
2023-04-06T12:28:19.381Z, 46.34